Mountain Home, AR

2:24 PM CDT on July 02, 2015 (GMT -0500)
Amateur Radio W7NMD | | Change Station
CLOSE
Current Station
Personal Weather Station
Location: Mountain Home, AR
Elevation: 940 ft
Nearby Weather Stations

Elev 940 ft 36.35 °N, 92.40 °W | Updated 8 seconds ago

Overcast
Overcast
80.5 °F
Feels Like 87 °F
N
0.0
Wind Variable Wind from WNW
Gusts 4.0 mph

Today
High -- | Low -- °F
--% Chance of Precip.
Yesterday
High -- | Low -- °F
Precip. -- in
5:55 AM 8:31 PM
Full, 99% visible
Pressure 29.84 in
Visibility 10.0 miles
Clouds Scattered Clouds 2700 ft
Mostly Cloudy 3700 ft
Overcast 5000 ft
Heat Index 87 °F
Dew Point 77 °F
Humidity 88%
Rainfall 1.57 in
Snow Depth Not available.
UV 4 out of 12
Pollen 2.80 out of 12
Air Quality Not available.
Flu Activity Not available.
METAR KBPK 021853Z AUTO 32003KT 10SM SCT027 BKN037 OVC050 27/24 A2987 RMK AO2 SLP104 T02720239

More Conditions Fewer Conditions

Pressure 29.84 in
Visibility 10.0 miles
Clouds Scattered Clouds 2700 ft
Mostly Cloudy 3700 ft
Overcast 5000 ft
Heat Index 87 °F
Dew Point 77 °F
Humidity 88%
Rainfall 1.57 in
Snow Depth Not available.
UV 4 out of 12
Pollen 2.80 out of 12
Air Quality Not available.
Flu Activity Not available.
METAR KBPK 021853Z AUTO 32003KT 10SM SCT027 BKN037 OVC050 27/24 A2987 RMK AO2 SLP104 T02720239

More Conditions Fewer Conditions

10-Day Weather Forecast

×

Almanac

Astronomy

Jul. 02, 2015 Rise Set
Actual Time
Civil Twilight
Nautical Twilight
Astronomical Twilight
Moon
Length of Visible Light
Length of Day
Tomorrow will be .
, % of the Moon is Illuminated

Today's Extremes

State Highs State Lows

Community

WunderPhotos

Upload Photos

1,834,519 photos uploaded!

WunderBlogs® & News

Nearby

Air Quality

  Air Quality AQ Index Pollutant
Not available.

Snow Depth

Station Depth Elevation

Earthquake Activity

City Distance Mag. Time & Date
Minimum magnitude displayed is 2.5.

Coastal Water Temperatures

Place Temperature

Stations

Nearby Weather Stations

Station Location Temp. Windchill Dew Point Humidity Wind Precip. Elev Updated Type